Flight Track Log - Related Links

Times and Time Zones

All times are in EDT time to prevent confusion due to time zone crossing. See the BAW2649 flight status page for this flight to view local times or setup timezone preferences in your user account.

Time Position Orientation Groundspeed Altitude Reporting Facility
EDT Latitude Longitude Course Direction KTS MPH feet Rate Location/Type
Thu 01:30:00 PM 41.4869 19.6143 312° West  Level Estimated
Thu 01:31:00 PM 41.5590 19.5078 312° West  Level Estimated
Thu 01:32:00 PM 41.6310 19.4010 312° West  Level Estimated
Thu 01:33:00 PM 41.7029 19.2940 312° West  Level Estimated
Thu 01:34:00 PM 41.7747 19.1868 312° West  Level Estimated
Thu 01:35:00 PM 41.8464 19.0793 312° West  Level Estimated
Thu 01:36:00 PM 41.9180 18.9716 312° West  Level Estimated
Thu 01:37:00 PM 41.9895 18.8637 312° West  Level Estimated
Thu 01:38:00 PM 42.0609 18.7555 312° West  Level Estimated
Thu 01:39:00 PM 42.1322 18.6471 312° West  Level Estimated
Thu 01:40:00 PM 42.2034 18.5384 312° West  Level Estimated
Thu 01:41:00 PM 42.2745 18.4294 311° West  Level Estimated
Thu 01:42:00 PM 42.3455 18.3203 311° West  Level Estimated
Thu 01:43:00 PM 42.4164 18.2108 311° West  Level Estimated
Thu 01:44:00 PM 42.4872 18.1012 311° West  Level Estimated
Thu 01:45:00 PM 42.5579 17.9913 311° West  Level Estimated
Thu 01:46:00 PM 42.6284 17.8811 311° West  Level Estimated
Thu 01:47:00 PM 42.6989 17.7707 311° West  Level Estimated
Thu 01:48:00 PM 42.7693 17.6600 311° West  Level Estimated
Thu 01:49:00 PM 42.8395 17.5491 311° West  Level Estimated
Thu 01:50:00 PM 42.9096 17.4379 311° West  Level Estimated
Thu 01:51:00 PM 42.9797 17.3265 311° West  Level Estimated
Thu 01:52:00 PM 43.0496 17.2148 311° West  Level Estimated
Thu 01:53:00 PM 43.1194 17.1029 311° West  Level Estimated
Thu 01:54:00 PM 43.1892 16.9907 310° West  Level Estimated
Thu 01:55:00 PM 43.2588 16.8783 310° West  Level Estimated
Thu 01:56:00 PM 43.3282 16.7656 310° West  Level Estimated
Thu 01:57:00 PM 43.3976 16.6526 310° West  Level Estimated
Thu 01:58:00 PM 43.4669 16.5394 310° West  Level Estimated
Thu 01:59:00 PM 43.5512 16.4011 310° West  Level Estimated
Thu 02:00:00 PM 43.6353 16.2624 310° West  Level Estimated
Thu 02:01:00 PM 43.7192 16.1232 310° West  Level Estimated
Thu 02:02:00 PM 43.8030 15.9837 310° West  Level Estimated
Thu 02:03:00 PM 43.8865 15.8439 310° West  Level Estimated
Thu 02:04:00 PM 43.9700 15.7036 310° West  Level Estimated
Thu 02:05:00 PM 44.0532 15.5629 309° West  Level Estimated
Thu 02:06:00 PM 44.1363 15.4218 309° West  Level Estimated
Thu 02:07:00 PM 44.2192 15.2803 309° West  Level Estimated
Thu 02:08:00 PM 44.3019 15.1385 309° West  Level Estimated
Thu 02:09:00 PM 44.3845 14.9962 309° West  Level Estimated
Thu 02:10:00 PM 44.4669 14.8535 309° West  Level Estimated
Thu 02:11:00 PM 44.5490 14.7105 309° West  Level Estimated
Thu 02:12:00 PM 44.6311 14.5670 309° West  Level Estimated
Thu 02:13:00 PM 44.7129 14.4231 309° West  Level Estimated
Thu 02:14:00 PM 44.7946 14.2788 309° West  Level Estimated
Thu 02:15:00 PM 44.8760 14.1341 309° West  Level Estimated
Thu 02:16:00 PM 44.9573 13.9890 308° West  Level Estimated
Thu 02:17:00 PM 45.0384 13.8435 308° West  Level Estimated
Thu 02:18:00 PM 45.1194 13.6976 308° West  Level Estimated
Thu 02:19:00 PM 45.2001 13.5512 308° West  Level Estimated
Thu 02:20:00 PM 45.2807 13.4045 308° West  Level Estimated
Thu 02:21:00 PM 45.3610 13.2573 308° West  Level Estimated
Thu 02:22:00 PM 45.4412 13.1097 308° West  Level Estimated
Thu 02:23:00 PM 45.5212 12.9616 308° West  Level Estimated
Thu 02:24:00 PM 45.6009 12.8132 308° West  Level Estimated
Thu 02:25:00 PM 45.6805 12.6643 307° West  Level Estimated
Thu 02:26:00 PM 45.7599 12.5151 307° West  Level Estimated
Thu 02:27:00 PM 45.8391 12.3654 307° West  Level Estimated
Thu 02:28:00 PM 45.9182 12.2152 307° West  Level Estimated
Thu 02:29:00 PM 45.9970 12.0647 307° West  Level Estimated
Thu 02:30:00 PM 46.0756 11.9137 307° West  Level Estimated
Thu 02:31:00 PM 46.1540 11.7623 307° West  Level Estimated
Thu 02:32:00 PM 46.2322 11.6104 307° West  Level Estimated
Thu 02:33:00 PM 46.3102 11.4581 307° West  Level Estimated
Thu 02:34:00 PM 46.3880 11.3054 306° West  Level Estimated
Thu 02:35:00 PM 46.4656 11.1523 306° West  Level Estimated
Thu 02:36:00 PM 46.5430 10.9987 306° West  Level Estimated
Thu 02:37:00 PM 46.6202 10.8446 306° West  Level Estimated
Thu 02:38:00 PM 46.6972 10.6902 306° West  Level Estimated
Thu 02:39:00 PM 46.7740 10.5353 306° West  Level Estimated
Thu 02:40:00 PM 46.8506 10.3799 306° West  Level Estimated
Thu 02:41:00 PM 46.9269 10.2241 306° West  Level Estimated
Thu 02:42:00 PM 47.0031 10.0679 306° West  Level Estimated
Thu 02:43:00 PM 47.0790 9.9112 305° West  Level Estimated
Thu 02:44:00 PM 47.1547 9.7541 305° West  Level Estimated
Thu 02:45:00 PM 47.2302 9.5965 305° West  Level Estimated
Thu 02:46:00 PM 47.3055 9.4385 305° West  Level Estimated
Thu 02:47:00 PM 47.3806 9.2800 305° West  Level Estimated
Thu 02:48:00 PM 47.4554 9.1210 305° West  Level Estimated
Thu 02:49:00 PM 47.5301 8.9617 305° West  Level Estimated
Thu 02:50:00 PM 47.6045 8.8018 305° West  Level Estimated
Thu 02:51:00 PM 47.6787 8.6416 305° West  Level Estimated
Thu 02:52:00 PM 47.7526 8.4808 304° West  Level Estimated
Thu 02:53:00 PM 47.8264 8.3196 304° West  Level Estimated
Thu 02:54:00 PM 47.8999 8.1580 304° West  Level Estimated
Thu 02:55:00 PM 47.9732 7.9958 304° West  Level Estimated
Thu 02:56:00 PM 48.0462 7.8333 304° West  Level Estimated
Thu 02:57:00 PM 48.1190 7.6702 304° West  Level Estimated
Thu 02:58:00 PM 48.1916 7.5067 304° West  Level Estimated
Thu 02:59:00 PM 48.2640 7.3428 304° West  Level Estimated
Thu 03:00:00 PM 48.3361 7.1783 303° West  Level Estimated
Thu 03:01:00 PM 48.4080 7.0134 303° West  Level Estimated
Thu 03:02:00 PM 48.4797 6.8481 303° West  Level Estimated
Thu 03:03:00 PM 48.5511 6.6822 303° West  Level Estimated
Thu 03:04:00 PM 48.6223 6.5160 303° West  Level Estimated
Thu 03:05:00 PM 48.6932 6.3492 303° West  Level Estimated
Thu 03:06:00 PM 48.7639 6.1820 303° West  Level Estimated
Thu 03:07:00 PM 48.8344 6.0143 303° West  Level Estimated
Thu 03:08:00 PM 48.9046 5.8461 302° West  Level Estimated
Thu 03:09:00 PM 48.9745 5.6774 302° West  Level Estimated
Thu 03:10:00 PM 49.0443 5.5083 302° West  Level Estimated
Thu 03:11:00 PM 49.1137 5.3387 302° West  Level Estimated
Thu 03:12:00 PM 49.1830 5.1686 302° West  Level Estimated
Thu 03:13:00 PM 49.2519 4.9981 302° West  Level Estimated
Thu 03:14:00 PM 49.3206 4.8271 302° West  Level Estimated
Thu 03:15:00 PM 49.3891 4.6556 302° West  Level Estimated
Thu 03:16:00 PM 49.4573 4.4836 301° West  Level Estimated
Thu 03:17:00 PM 49.5253 4.3111 301° West  Level Estimated
Thu 03:18:00 PM 49.5930 4.1382 301° West  Level Estimated
Thu 03:19:00 PM 49.6604 3.9648 301° West  Level Estimated
Thu 03:20:00 PM 49.7276 3.7909 301° West  Level Estimated
Thu 03:21:00 PM 49.7945 3.6165 301° West  Level Estimated
Thu 03:22:00 PM 49.8612 3.4416 301° West  Level Estimated
Thu 03:23:00 PM 49.9276 3.2663 301° West  Level Estimated
Thu 03:24:00 PM 49.9937 3.0905 300° West  Level Estimated
Thu 03:25:00 PM 50.0596 2.9142 300° West  Level Estimated
Thu 03:26:00 PM 50.1252 2.7374 300° West  Level Estimated
Thu 03:27:00 PM 50.1905 2.5601 300° West  Level Estimated
Thu 03:28:00 PM 50.2556 2.3824 300° West  Level Estimated
Thu 03:29:00 PM 50.3204 2.2041 300° West  Level Estimated
Thu 03:30:00 PM 50.3849 2.0254 300° West  Level Estimated
Thu 03:31:00 PM 50.4491 1.8462 299° West  Level Estimated
Thu 03:31:47 PM 49.4009 2.8365 299° West 1 1 30,400  Level FlightAware UK
Thu 03:32:00 PM 50.5131 1.6665 299° West  Level Estimated
Thu 03:32:22 PM 49.4463 2.7514 309° West 1 1 30,500  Level FlightAware UK
Thu 03:32:47 PM 49.4772 2.6924 309° West 1 1 30,500  Level FlightAware UK
Thu 03:33:05 PM 49.5042 2.6512 315° West 1 1 30,500  Level FlightAware UK
Thu 03:33:29 PM 49.5351 2.5943 310° West 444 511 30,500  Level FlightAware UK
Thu 03:33:59 PM 49.5748 2.5274 312° West 442 509 30,500  Level FlightAware UK
Thu 03:34:16 PM 49.5984 2.4879 313° West 442 509 30,500  Level FlightAware UK
Thu 03:34:35 PM 49.6226 2.4476 313° West 442 509 30,500  Level FlightAware UK
Thu 03:34:59 PM 49.6541 2.3940 312° West 436 502 30,500  Level FlightAware UK
Thu 03:35:22 PM 49.6853 2.3410 312° West 438 504 30,500  Level FlightAware UK
Thu 03:35:41 PM 49.7092 2.3002 312° West 444 511 30,500  Level FlightAware UK
Thu 03:35:58 PM 49.7325 2.2602 312° West 442 509 30,500  Level FlightAware UK
Thu 03:36:16 PM 49.7561 2.2196 312° West 442 509 30,500  Level FlightAware UK
Thu 03:36:34 PM 49.7796 2.1788 312° West 446 513 30,500  Level FlightAware UK
Thu 03:36:52 PM 49.8035 2.1385 313° West 446 513 30,500  Level FlightAware UK
Thu 03:37:10 PM 49.8331 2.1052 324° Northwest 442 509 30,500  Level FlightAware UK
Thu 03:37:28 PM 49.8611 2.0694 320° Northwest 444 511 30,500  Level FlightAware UK
Thu 03:37:46 PM 49.8894 2.0344 321° Northwest 442 509 30,500  Level FlightAware UK
Thu 03:38:05 PM 49.9181 1.9991 322° Northwest 440 506 30,500  Level FlightAware UK
Thu 03:38:22 PM 49.9456 1.9629 320° Northwest 444 511 30,500  Level FlightAware UK
Thu 03:38:40 PM 49.9733 1.9276 321° Northwest 444 511 30,500 -333 Level FlightAware UK
Thu 03:38:58 PM 49.9991 1.8892 316° Northwest 444 511 30,300 -857 Descending FlightAware UK
Thu 03:39:22 PM 50.0329 1.8376 316° Northwest 442 509 29,900 -1,000 Descending FlightAware UK
Thu 03:39:40 PM 50.0584 1.7987 316° Northwest 446 513 29,600 -1,000 Descending FlightAware UK
Thu 03:39:58 PM 50.0841 1.7595 316° Northwest 442 509 29,300 -833 Descending FlightAware UK
Thu 03:40:16 PM 50.1093 1.7217 316° Northwest 444 511 29,100 -833 Descending FlightAware UK
Thu 03:40:34 PM 50.1350 1.6835 316° Northwest 446 513 28,800 -1,000 Descending FlightAware UK
Thu 03:40:52 PM 50.1606 1.6452 316° Northwest 446 513 28,500 -1,500 Descending FlightAware UK
Thu 03:41:10 PM 50.1864 1.6071 317° Northwest 444 511 27,900 -2,000 Descending FlightAware UK
Thu 03:41:28 PM 50.2122 1.5689 317° Northwest 444 511 27,300 -2,143 Descending FlightAware UK
Thu 03:41:52 PM 50.2456 1.5171 315° West 438 504 26,400 -2,286 Descending FlightAware UK
Thu 03:42:10 PM 50.2685 1.4791 313° West 432 497 25,700 -2,333 Descending FlightAware UK
Thu 03:42:28 PM 50.2917 1.4403 313° West 426 490 25,000 -2,286 Descending FlightAware UK
Thu 03:42:52 PM 50.3213 1.3897 313° West 420 483 24,100 -2,286 Descending FlightAware UK
Thu 03:43:10 PM 50.3438 1.3516 313° West 416 479 23,400 -2,167 Descending FlightAware UK
Thu 03:43:28 PM 50.3658 1.3142 313° West 412 474 22,800 -2,167 Descending FlightAware UK
Thu 03:43:46 PM 50.3877 1.2778 313° West 406 467 22,100 -2,143 Descending FlightAware UK
Thu 03:44:10 PM 50.4167 1.2289 313° West 402 463 21,300 -2,143 Descending FlightAware UK
Thu 03:44:28 PM 50.4377 1.1927 312° West 398 458 20,600 -2,125 Descending FlightAware UK
Thu 03:44:58 PM 50.4715 1.1314 311° West 392 451 19,600 -2,000 Descending FlightAware UK
Thu 03:45:16 PM 50.4916 1.0943 311° West 392 451 19,000 -2,167 Descending FlightAware UK
Thu 03:45:34 PM 50.5118 1.0575 311° West 386 444 18,300 -2,143 Descending FlightAware UK
Thu 03:45:58 PM 50.5382 1.0095 311° West 382 440 17,500 -2,000 Descending FlightAware UK
Thu 03:46:16 PM 50.5581 0.9737 311° West 376 433 16,900 -2,000 Descending FlightAware UK
Thu 03:46:40 PM 50.5841 0.9274 312° West 374 430 16,100 -2,143 Descending FlightAware UK
Thu 03:46:58 PM 50.6035 0.8915 310° West 370 426 15,400 -2,000 Descending FlightAware UK
Thu 03:47:16 PM 50.6223 0.8574 311° West 366 421 14,900 -1,833 Descending FlightAware UK
Thu 03:47:34 PM 50.6413 0.8230 311° West 362 417 14,300 -2,000 Descending FlightAware UK
Thu 03:47:52 PM 50.6595 0.7900 311° West 360 414 13,700 -1,714 Descending FlightAware UK
Thu 03:48:09 PM 50.6775 0.7570 311° West 358 412 13,300 -1,132 Descending FlightAware UK
Thu 03:48:45 PM 50.7139 0.6903 311° West 356 410 12,700 -1,091 Descending FlightAware UK
Thu 03:49:04 PM 50.7323 0.6565 311° West 352 405 12,300 -1,667 Descending FlightAware UK
Thu 03:49:21 PM 50.7503 0.6235 311° West 348 400 11,700 -2,426 Descending FlightAware UK
Thu 03:49:51 PM 50.7804 0.5685 311° West 350 403 10,400 -2,222 Descending FlightAware UK
Thu 03:50:15 PM 50.8044 0.5244 311° West 346 398 9,700 -1,857 Descending FlightAware UK
Thu 03:50:33 PM 50.8214 0.4930 311° West 338 389 9,100 -1,953 Descending FlightAware UK
Thu 03:50:58 PM 50.8438 0.4513 310° West 330 380 8,300 -2,000 Descending FlightAware UK
Thu 03:51:15 PM 50.8602 0.4211 311° West 324 373 7,700 -1,886 Descending FlightAware UK
Thu 03:51:33 PM 50.8819 0.3992 328° Northwest 320 368 7,200 -1,953 Descending FlightAware UK
Thu 03:51:58 PM 50.9116 0.3716 330° Northwest 316 364 6,300 -2,400 Descending FlightAware UK
Thu 03:52:28 PM 50.9485 0.3381 330° Northwest 310 357 5,000 -2,170 Descending FlightAware UK
Thu 03:52:45 PM 50.9703 0.3183 330° Northwest 300 345 4,600 -566 Descending FlightAware UK
Thu 03:53:21 PM 51.0113 0.2836 332° Northwest 272 313 4,500 -500 Descending FlightAware UK
Thu 03:53:45 PM 51.0376 0.2616 332° Northwest 268 308 4,100 -1,188 Descending FlightAware UK
Thu 03:54:57 PM 51.1166 0.1960 332° Northwest 250 288 2,600 -1,133 Descending FlightAware UK
Thu 03:55:15 PM 51.1346 0.1815 333° Northwest 242 278 2,400 -500 Descending FlightAware UK
Thu 03:55:45 PM 51.1643 0.1589 334° Northwest 224 258 2,200 -333 Descending FlightAware UK
Thu 03:56:27 PM 51.1860 0.1203 312° West 192 221 2,000 -364 Descending FlightAware UK
Thu 03:56:51 PM 51.1853 0.0951 268° West 190 219 1,800 -444 Descending FlightAware UK
Thu 03:57:21 PM 51.1835 0.0643 265° West 184 212 1,600 -222 Descending FlightAware UK
Thu 03:57:45 PM 51.1805 0.0411 258° West 182 209 1,600 -333 Level FlightAware UK
Thu 03:58:15 PM 51.1764 0.0133 257° West 172 198 1,300 -727 Descending FlightAware UK
Thu 03:58:51 PM 51.1717 -0.0184 257° West 170 196 800 -750 Descending FlightAware UK
Thu 03:59:27 PM 51.1672 -0.0511 258° West 162 186 400 -667 Descending FlightAware UK
Thu 04:03:00 PM 51.1481 -0.1903 258° West  Level Estimated

Login

Don't have an account? Register now (free) for customized features, flight alerts, and more!